Time;durP1;ratioP1;P1;durP2;ratioP2;P2;SDS_P1;SDS_P2;PMS_P1;PMS_P2;Temp;Humidity;BMP_temperature;BMP_pressure;BME280_temperature;BME280_humidity;BME280_pressure;Samples;Min_cycle;Max_cycle;Signal;HPM_P1;HPM_P2
2022/08/21 00:02:27;;;;;;;6.55;3.40;;;16.40;98.70;;;;;;5023456;28;20048;-58
2022/08/21 00:04:53;;;;;;;9.55;4.10;;;16.40;98.80;;;;;;5022779;28;20053;-57
2022/08/21 00:07:23;;;;;;;6.35;3.50;;;16.40;99.10;;;;;;5024026;28;20053;-58
2022/08/21 00:09:49;;;;;;;10.05;4.13;;;16.30;99.10;;;;;;5022115;28;20125;-58
2022/08/21 00:12:15;;;;;;;9.40;4.18;;;16.30;99.20;;;;;;5023620;28;20598;-58
2022/08/21 00:14:41;;;;;;;7.97;4.03;;;16.30;99.40;;;;;;5023130;28;20046;-58
2022/08/21 00:17:06;;;;;;;15.13;3.92;;;16.30;99.70;;;;;;5022510;28;20527;-58
2022/08/21 00:19:33;;;;;;;6.93;4.07;;;16.30;99.90;;;;;;5024837;28;20046;-58
2022/08/21 00:21:59;;;;;;;8.23;3.97;;;16.20;99.90;;;;;;5024449;28;20052;-58
2022/08/21 00:24:25;;;;;;;11.40;4.50;;;16.20;99.90;;;;;;5023468;28;20046;-58
2022/08/21 00:26:52;;;;;;;10.40;4.32;;;16.20;99.90;;;;;;5023187;28;20046;-57
2022/08/21 00:29:18;;;;;;;10.68;4.10;;;16.20;99.90;;;;;;5022813;28;20044;-58
2022/08/21 00:31:44;;;;;;;11.05;3.90;;;16.10;99.90;;;;;;5022181;28;20089;-58
2022/08/21 00:34:12;;;;;;;8.25;4.10;;;16.20;99.90;;;;;;5024191;28;20099;-57
2022/08/21 00:36:38;;;;;;;9.80;4.13;;;16.10;99.90;;;;;;5025087;28;20042;-58
2022/08/21 00:39:07;;;;;;;8.77;3.97;;;16.10;99.90;;;;;;5022863;28;20403;-57
2022/08/21 00:41:35;;;;;;;8.15;3.75;;;16.10;99.90;;;;;;5021762;28;20136;-58
2022/08/21 00:44:01;;;;;;;10.90;4.15;;;16.10;99.90;;;;;;5023135;28;20085;-57
2022/08/21 00:46:26;;;;;;;8.57;4.00;;;16.10;99.90;;;;;;5022210;28;20112;-58
2022/08/21 00:48:52;;;;;;;9.25;3.45;;;16.00;99.90;;;;;;5024569;28;20053;-57
2022/08/21 00:51:28;;;;;;;7.25;3.90;;;16.00;99.90;;;;;;5021294;28;20053;-58
2022/08/21 00:53:59;;;;;;;7.88;3.97;;;16.00;99.90;;;;;;5023209;28;20053;-58
2022/08/21 00:56:25;;;;;;;9.05;3.95;;;16.00;99.90;;;;;;5021989;28;20053;-57
2022/08/21 00:58:53;;;;;;;7.55;3.58;;;16.00;99.90;;;;;;5021695;28;20053;-58
2022/08/21 01:01:19;;;;;;;11.88;4.43;;;15.90;99.90;;;;;;5023637;28;20064;-58
2022/08/21 01:03:46;;;;;;;10.85;4.45;;;15.90;99.90;;;;;;5022337;28;20049;-57
2022/08/21 01:06:12;;;;;;;9.75;4.22;;;15.90;99.90;;;;;;5022101;28;20046;-57
2022/08/21 01:08:38;;;;;;;9.70;4.07;;;15.90;99.90;;;;;;5021150;28;20090;-58
2022/08/21 01:11:05;;;;;;;9.45;4.07;;;15.90;99.90;;;;;;5021672;28;20893;-57
2022/08/21 01:13:35;;;;;;;9.48;4.20;;;15.90;99.90;;;;;;5023417;28;20084;-58
2022/08/21 01:16:03;;;;;;;14.90;4.50;;;15.90;99.90;;;;;;5022777;28;20067;-57
2022/08/21 01:18:29;;;;;;;7.50;3.90;;;15.80;99.90;;;;;;5022231;28;20088;-57
2022/08/21 01:21:15;;;;;;;9.55;4.07;;;15.80;99.90;;;;;;5021198;28;20527;-57
2022/08/21 01:23:44;;;;;;;8.50;4.13;;;15.80;99.90;;;;;;5022581;28;20076;-56
2022/08/21 01:26:12;;;;;;;13.77;4.30;;;15.80;99.90;;;;;;5021591;28;20115;-58
2022/08/21 01:28:45;;;;;;;7.43;4.10;;;15.80;99.90;;;;;;5021678;28;20052;-58
2022/08/21 01:31:13;;;;;;;11.77;4.72;;;15.80;99.90;;;;;;5022296;28;20511;-58
2022/08/21 01:33:39;;;;;;;8.73;4.20;;;15.70;99.90;;;;;;5022985;28;20472;-58
2022/08/21 01:36:06;;;;;;;12.25;4.63;;;15.70;99.90;;;;;;5021287;28;20490;-58
2022/08/21 01:38:32;;;;;;;13.98;4.43;;;15.70;99.90;;;;;;5021792;28;20056;-58
2022/08/21 01:40:58;;;;;;;7.72;4.20;;;15.70;99.90;;;;;;5021848;28;20087;-58
2022/08/21 01:43:24;;;;;;;13.15;4.68;;;15.70;99.90;;;;;;5022192;28;20074;-58
2022/08/21 01:45:50;;;;;;;11.88;4.60;;;15.70;99.90;;;;;;5020435;28;20138;-58
2022/08/21 01:48:16;;;;;;;8.82;4.38;;;15.70;99.90;;;;;;5020617;28;20176;-58
2022/08/21 01:50:42;;;;;;;7.63;4.20;;;15.60;99.90;;;;;;5020592;28;20038;-57
2022/08/21 01:53:07;;;;;;;6.15;4.30;;;15.60;99.90;;;;;;5021456;28;20541;-57
2022/08/21 01:55:33;;;;;;;8.98;4.53;;;15.60;99.90;;;;;;5022571;28;20552;-57
2022/08/21 01:57:59;;;;;;;10.82;4.70;;;15.50;99.90;;;;;;5021368;28;20088;-57
2022/08/21 02:00:25;;;;;;;11.20;4.90;;;15.50;99.90;;;;;;5021077;28;20041;-58
2022/08/21 02:02:51;;;;;;;9.30;4.80;;;15.50;99.90;;;;;;5019944;28;20037;-58
2022/08/21 02:05:18;;;;;;;10.32;5.13;;;15.50;99.90;;;;;;5021800;28;20059;-57
2022/08/21 02:07:47;;;;;;;11.95;5.20;;;15.50;99.90;;;;;;5021660;28;20103;-58
2022/08/21 02:10:19;;;;;;;11.43;4.95;;;15.50;99.90;;;;;;5022035;28;20050;-58
2022/08/21 02:12:45;;;;;;;11.45;5.50;;;15.50;99.90;;;;;;5021280;28;20618;-58
2022/08/21 02:15:11;;;;;;;12.18;5.00;;;15.50;99.90;;;;;;5022003;28;20069;-57
2022/08/21 02:17:50;;;;;;;10.00;4.90;;;15.50;99.90;;;;;;5018852;28;20581;-58
2022/08/21 02:20:28;;;;;;;14.23;5.43;;;15.50;99.90;;;;;;5020340;28;20060;-58
2022/08/21 02:22:54;;;;;;;9.95;5.30;;;15.50;99.90;;;;;;5021182;28;20460;-57
2022/08/21 02:25:23;;;;;;;9.50;4.90;;;15.50;99.90;;;;;;5021887;28;20047;-58
2022/08/21 02:27:49;;;;;;;10.35;5.45;;;15.50;99.90;;;;;;5021408;28;20045;-58
2022/08/21 02:30:18;;;;;;;13.00;5.40;;;15.50;99.90;;;;;;5020851;28;20045;-57
2022/08/21 02:32:44;;;;;;;12.25;5.40;;;15.50;99.90;;;;;;5018008;28;20687;-58
2022/08/21 02:35:11;;;;;;;11.77;6.13;;;15.50;99.90;;;;;;5019610;28;20053;-58
2022/08/21 02:37:49;;;;;;;16.05;6.20;;;15.50;99.90;;;;;;5004341;28;20049;-57
2022/08/21 02:40:17;;;;;;;10.73;5.50;;;15.50;99.90;;;;;;5020576;28;20041;-58
2022/08/21 02:42:43;;;;;;;12.75;5.88;;;15.50;99.90;;;;;;5020609;28;20045;-58
2022/08/21 02:45:11;;;;;;;11.57;6.00;;;15.40;99.90;;;;;;5020013;28;20090;-58
2022/08/21 02:47:37;;;;;;;12.82;5.47;;;15.50;99.90;;;;;;5020839;28;20046;-58
2022/08/21 02:50:04;;;;;;;11.80;5.78;;;15.40;99.90;;;;;;5020943;28;20044;-56
2022/08/21 02:52:30;;;;;;;12.70;5.93;;;15.40;99.90;;;;;;5021341;28;20057;-58
2022/08/21 02:54:56;;;;;;;11.38;5.63;;;15.40;99.90;;;;;;5020869;28;20045;-58
2022/08/21 02:57:22;;;;;;;13.07;5.93;;;15.40;99.90;;;;;;5018697;28;20103;-57
2022/08/21 02:59:47;;;;;;;13.68;5.95;;;15.40;99.90;;;;;;5019881;28;20510;-57
2022/08/21 03:02:13;;;;;;;13.60;5.95;;;15.40;99.90;;;;;;5020538;28;20500;-58
2022/08/21 03:04:39;;;;;;;10.73;6.20;;;15.40;99.90;;;;;;5021589;28;20570;-58
2022/08/21 03:07:05;;;;;;;9.50;6.40;;;15.30;99.90;;;;;;5019473;28;20053;-57
2022/08/21 03:09:31;;;;;;;11.52;6.32;;;15.30;99.90;;;;;;5020953;28;20056;-58
2022/08/21 03:11:57;;;;;;;13.20;5.90;;;15.30;99.90;;;;;;5019572;28;20076;-58
2022/08/21 03:14:23;;;;;;;15.57;6.13;;;15.30;99.90;;;;;;5021070;28;20049;-58
2022/08/21 03:16:49;;;;;;;14.32;6.13;;;15.30;99.90;;;;;;5019687;28;20056;-57
2022/08/21 03:19:15;;;;;;;10.50;6.18;;;15.30;99.90;;;;;;5019760;28;20049;-57
2022/08/21 03:21:41;;;;;;;13.57;6.00;;;15.30;99.90;;;;;;5020845;28;20864;-58
2022/08/21 03:24:07;;;;;;;11.30;6.30;;;15.30;99.90;;;;;;5018763;28;20046;-57
2022/08/21 03:26:33;;;;;;;10.55;6.38;;;15.20;99.90;;;;;;5019980;28;20124;-58
2022/08/21 03:28:59;;;;;;;14.98;6.40;;;15.20;99.90;;;;;;5020570;28;20613;-58
2022/08/21 03:31:28;;;;;;;9.18;5.90;;;15.20;99.90;;;;;;5021063;28;20053;-58
2022/08/21 03:33:56;;;;;;;14.93;6.35;;;15.20;99.90;;;;;;5018511;28;20064;-58
2022/08/21 03:36:22;;;;;;;10.50;6.13;;;15.20;99.90;;;;;;5018607;28;20567;-58
2022/08/21 03:38:48;;;;;;;13.20;6.47;;;15.20;99.90;;;;;;5019901;28;20049;-57
2022/08/21 03:41:14;;;;;;;10.50;5.78;;;15.20;99.90;;;;;;5018562;28;20057;-57
2022/08/21 03:43:40;;;;;;;12.52;6.30;;;15.20;99.90;;;;;;5021382;28;20056;-58
2022/08/21 03:46:06;;;;;;;13.65;6.40;;;15.20;99.90;;;;;;5019881;28;22393;-57
2022/08/21 03:48:34;;;;;;;9.75;6.03;;;15.20;99.90;;;;;;5019506;28;20057;-58
2022/08/21 03:51:00;;;;;;;12.57;5.97;;;15.10;99.90;;;;;;5018828;28;20488;-58
2022/08/21 03:53:25;;;;;;;12.55;6.10;;;15.20;99.90;;;;;;5020431;28;20049;-57
2022/08/21 03:55:52;;;;;;;12.98;6.97;;;15.10;99.90;;;;;;5020301;28;20045;-57
2022/08/21 03:58:21;;;;;;;11.35;6.25;;;15.20;99.90;;;;;;5020168;28;20053;-57
2022/08/21 04:00:50;;;;;;;13.43;6.38;;;15.10;99.90;;;;;;5019520;28;20415;-57
2022/08/21 04:03:17;;;;;;;13.45;5.93;;;15.10;99.90;;;;;;5019286;28;20676;-58
2022/08/21 04:05:45;;;;;;;9.73;5.75;;;15.10;99.90;;;;;;5018098;28;20041;-58
2022/08/21 04:08:11;;;;;;;12.98;6.55;;;15.10;99.90;;;;;;5020847;28;20049;-58
2022/08/21 04:10:39;;;;;;;11.60;6.35;;;15.10;99.90;;;;;;5019990;28;20496;-56
2022/08/21 04:13:06;;;;;;;9.98;5.90;;;15.10;99.90;;;;;;5020504;28;20053;-58
2022/08/21 04:15:33;;;;;;;11.80;6.25;;;15.10;99.90;;;;;;5018564;28;20121;-57
2022/08/21 04:17:59;;;;;;;11.60;5.95;;;15.10;99.90;;;;;;5018851;28;20068;-59
2022/08/21 04:20:26;;;;;;;11.20;6.05;;;15.10;99.90;;;;;;5017654;28;20547;-58
2022/08/21 04:22:52;;;;;;;8.40;5.57;;;15.10;99.90;;;;;;5021492;28;20443;-58
2022/08/21 04:25:21;;;;;;;8.73;6.07;;;15.10;99.90;;;;;;5019339;28;20626;-58
2022/08/21 04:27:47;;;;;;;11.93;6.00;;;15.10;99.90;;;;;;5019495;28;20527;-58
2022/08/21 04:30:14;;;;;;;11.63;5.97;;;15.10;99.90;;;;;;5019552;28;20124;-58
2022/08/21 04:32:46;;;;;;;11.38;5.90;;;15.10;99.90;;;;;;5018752;28;20074;-58
2022/08/21 04:35:14;;;;;;;14.77;6.32;;;15.10;99.90;;;;;;5019021;28;20049;-57
2022/08/21 04:37:39;;;;;;;11.40;6.20;;;15.10;99.90;;;;;;5020430;28;20131;-57
2022/08/21 04:40:08;;;;;;;13.30;6.22;;;15.10;99.90;;;;;;5019379;28;20128;-58
2022/08/21 04:42:44;;;;;;;11.35;5.75;;;15.10;99.90;;;;;;5019005;28;20527;-58
2022/08/21 04:45:16;;;;;;;12.93;5.85;;;15.10;99.90;;;;;;5020377;28;20041;-58
2022/08/21 04:47:41;;;;;;;11.70;6.00;;;15.10;99.90;;;;;;5021446;28;20053;-57
2022/08/21 04:50:08;;;;;;;13.18;6.38;;;15.10;99.90;;;;;;5022518;28;20052;-57
2022/08/21 04:52:34;;;;;;;13.30;6.72;;;15.10;99.90;;;;;;5023076;28;20061;-58
2022/08/21 04:55:00;;;;;;;11.85;6.03;;;15.10;99.90;;;;;;5022196;28;20095;-57
2022/08/21 04:57:26;;;;;;;13.02;6.30;;;15.10;99.90;;;;;;5021119;28;20443;-58
2022/08/21 04:59:52;;;;;;;12.27;5.78;;;15.10;99.90;;;;;;5022598;28;20133;-57
2022/08/21 05:02:19;;;;;;;11.68;5.78;;;15.10;99.90;;;;;;5023077;28;20046;-58
2022/08/21 05:04:52;;;;;;;13.52;5.88;;;15.10;99.90;;;;;;5023262;28;20499;-57
2022/08/21 05:07:26;;;;;;;13.23;6.25;;;15.10;99.90;;;;;;5021503;28;20111;-57
2022/08/21 05:09:53;;;;;;;15.23;6.97;;;15.10;99.90;;;;;;5022613;28;20045;-57
2022/08/21 05:12:19;;;;;;;10.27;5.60;;;15.10;99.90;;;;;;5022608;28;20404;-58
2022/08/21 05:14:45;;;;;;;14.18;6.30;;;15.10;99.90;;;;;;5021656;28;20046;-58
2022/08/21 05:17:10;;;;;;;11.88;5.90;;;15.20;99.90;;;;;;5021011;28;20633;-57
2022/08/21 05:19:36;;;;;;;12.73;6.03;;;15.20;99.90;;;;;;5022839;28;20056;-58
2022/08/21 05:22:02;;;;;;;12.05;6.30;;;15.20;99.90;;;;;;5021765;28;20419;-56
2022/08/21 05:24:28;;;;;;;14.07;6.20;;;15.20;99.90;;;;;;5021638;28;20108;-58
2022/08/21 05:26:54;;;;;;;15.98;6.38;;;15.20;99.90;;;;;;5022342;28;20462;-57
2022/08/21 05:29:20;;;;;;;10.93;5.75;;;15.20;99.90;;;;;;5022706;28;20053;-58
2022/08/21 05:31:47;;;;;;;14.98;6.63;;;15.20;99.90;;;;;;5022797;28;20064;-56
2022/08/21 05:34:22;;;;;;;13.20;6.60;;;15.20;99.90;;;;;;5021350;28;21321;-58
2022/08/21 05:36:47;;;;;;;12.40;6.65;;;15.20;99.90;;;;;;5021463;28;20132;-58
2022/08/21 05:39:14;;;;;;;14.60;7.00;;;15.20;99.90;;;;;;5019449;28;20053;-56
2022/08/21 05:41:40;;;;;;;11.48;6.47;;;15.30;99.90;;;;;;5020512;28;20061;-58
2022/08/21 05:44:06;;;;;;;14.55;6.53;;;15.30;99.90;;;;;;5022611;28;20480;-57
2022/08/21 05:46:32;;;;;;;10.20;6.28;;;15.30;99.90;;;;;;5022872;28;20049;-58
2022/08/21 05:48:57;;;;;;;14.98;7.25;;;15.30;99.90;;;;;;5021340;28;20045;-58
2022/08/21 05:51:24;;;;;;;12.73;6.15;;;15.40;99.90;;;;;;5018732;28;20104;-57
2022/08/21 05:53:49;;;;;;;17.23;6.30;;;15.40;99.90;;;;;;5020352;28;20132;-58
2022/08/21 05:56:15;;;;;;;12.18;6.10;;;15.40;99.90;;;;;;5021495;28;20041;-58
2022/08/21 05:58:42;;;;;;;12.88;5.90;;;15.50;99.90;;;;;;5036267;28;20107;-56
2022/08/21 06:01:08;;;;;;;13.15;6.50;;;15.50;99.90;;;;;;5020540;28;20112;-58
2022/08/21 06:03:37;;;;;;;13.93;6.25;;;15.60;99.90;;;;;;5021403;28;20042;-58
2022/08/21 06:06:04;;;;;;;14.32;5.90;;;15.60;99.90;;;;;;5020906;28;20601;-58
2022/08/21 06:08:30;;;;;;;13.63;6.50;;;15.70;99.90;;;;;;5022073;28;20049;-58
2022/08/21 06:10:57;;;;;;;12.02;6.05;;;15.70;99.90;;;;;;5022265;28;20045;-58
2022/08/21 06:13:23;;;;;;;16.25;5.85;;;15.70;99.90;;;;;;5022829;28;20041;-58
2022/08/21 06:16:00;;;;;;;15.20;6.53;;;15.80;99.90;;;;;;5020462;28;20079;-58
2022/08/21 06:18:25;;;;;;;10.60;5.68;;;15.80;99.90;;;;;;5020443;28;20150;-57
2022/08/21 06:20:51;;;;;;;15.45;5.45;;;15.90;99.90;;;;;;5020075;28;20480;-58
2022/08/21 06:23:17;;;;;;;19.42;6.43;;;15.90;99.90;;;;;;5020627;28;20041;-58
2022/08/21 06:25:43;;;;;;;10.93;5.57;;;16.00;99.90;;;;;;5022062;28;20054;-58
2022/08/21 06:28:09;;;;;;;12.95;5.38;;;16.10;99.90;;;;;;5020970;28;20615;-58
2022/08/21 06:30:37;;;;;;;10.68;5.65;;;16.20;99.90;;;;;;5018531;28;20050;-57
2022/08/21 06:33:03;;;;;;;13.18;5.43;;;16.30;99.90;;;;;;5018180;28;20047;-58
2022/08/21 06:35:30;;;;;;;10.50;5.22;;;16.40;99.90;;;;;;5020030;28;20041;-58
2022/08/21 06:37:57;;;;;;;10.90;5.22;;;16.40;99.90;;;;;;5021803;28;20045;-58
2022/08/21 06:40:23;;;;;;;18.33;5.85;;;16.50;99.90;;;;;;5021719;28;20046;-58
2022/08/21 06:42:49;;;;;;;13.93;5.15;;;16.60;99.90;;;;;;5021268;28;20073;-58
2022/08/21 06:45:15;;;;;;;11.00;5.22;;;16.70;99.90;;;;;;5019252;28;20088;-58
2022/08/21 06:47:41;;;;;;;13.02;5.50;;;16.80;99.90;;;;;;5021385;28;20451;-58
2022/08/21 06:50:07;;;;;;;11.20;5.07;;;16.90;99.90;;;;;;5019281;28;20041;-59
2022/08/21 06:52:34;;;;;;;12.57;5.68;;;16.90;99.90;;;;;;5021040;28;20057;-58
2022/08/21 06:55:00;;;;;;;15.50;5.15;;;17.10;99.90;;;;;;5020674;28;20041;-58
2022/08/21 06:57:26;;;;;;;16.50;5.70;;;17.20;99.90;;;;;;5018335;28;20041;-59
2022/08/21 06:59:52;;;;;;;11.23;5.03;;;17.20;99.90;;;;;;5019626;28;20049;-59
2022/08/21 07:02:18;;;;;;;10.45;4.32;;;17.40;99.90;;;;;;5021586;28;20147;-59
2022/08/21 07:04:44;;;;;;;14.02;5.20;;;17.50;99.90;;;;;;5020351;28;20052;-58
2022/08/21 07:07:09;;;;;;;15.13;4.93;;;17.50;99.90;;;;;;5019718;28;20061;-58
2022/08/21 07:09:35;;;;;;;13.60;4.10;;;17.60;99.90;;;;;;5019164;28;20892;-59
2022/08/21 07:12:02;;;;;;;12.73;4.07;;;17.70;99.90;;;;;;5021187;28;20045;-59
2022/08/21 07:14:28;;;;;;;10.45;3.83;;;17.80;99.90;;;;;;5019572;28;20124;-59
2022/08/21 07:16:54;;;;;;;14.93;4.75;;;17.90;99.90;;;;;;5017620;28;20103;-59
2022/08/21 07:19:20;;;;;;;11.25;3.95;;;18.00;99.90;;;;;;5018541;28;20140;-59
2022/08/21 07:21:46;;;;;;;13.02;4.43;;;18.10;99.90;;;;;;5003834;28;20065;-58
2022/08/21 07:24:13;;;;;;;10.40;3.13;;;18.20;99.90;;;;;;5016585;28;20096;-58
2022/08/21 07:26:39;;;;;;;9.90;3.38;;;18.30;99.90;;;;;;5019918;28;20045;-58
2022/08/21 07:29:05;;;;;;;10.27;3.10;;;18.40;99.90;;;;;;5019875;28;20049;-59
2022/08/21 07:31:32;;;;;;;11.32;3.40;;;18.50;99.90;;;;;;5020630;28;20088;-59
2022/08/21 07:33:58;;;;;;;9.27;3.45;;;18.60;99.90;;;;;;5003258;28;20514;-59
2022/08/21 07:36:24;;;;;;;12.15;3.92;;;18.70;99.90;;;;;;5020273;28;20096;-58
2022/08/21 07:38:50;;;;;;;13.57;2.80;;;18.80;99.90;;;;;;5017174;28;20053;-59
2022/08/21 07:41:19;;;;;;;10.85;2.80;;;18.90;99.90;;;;;;5019893;28;20044;-58
2022/08/21 07:43:46;;;;;;;10.18;2.60;;;19.10;99.90;;;;;;5017428;28;20076;-59
2022/08/21 07:46:12;;;;;;;11.00;2.70;;;19.20;99.90;;;;;;5019437;28;20494;-59
2022/08/21 07:48:38;;;;;;;8.63;2.60;;;19.30;99.90;;;;;;5020097;28;20044;-59
2022/08/21 07:51:08;;;;;;;8.55;2.80;;;19.30;99.90;;;;;;5018296;28;20081;-59
2022/08/21 07:53:36;;;;;;;11.32;2.70;;;19.50;99.90;;;;;;5034013;28;20448;-60
2022/08/21 07:56:04;;;;;;;11.15;3.13;;;19.50;99.90;;;;;;5021099;28;20056;-59
2022/08/21 07:58:31;;;;;;;10.95;2.83;;;19.70;99.90;;;;;;5019567;28;20049;-59
2022/08/21 08:00:57;;;;;;;7.97;2.75;;;19.70;99.90;;;;;;5019160;28;20045;-59
2022/08/21 08:03:23;;;;;;;8.25;2.83;;;19.80;99.90;;;;;;5019533;28;20040;-58
2022/08/21 08:05:49;;;;;;;14.20;3.05;;;20.00;99.90;;;;;;5017874;28;20136;-58
2022/08/21 08:08:14;;;;;;;9.23;2.20;;;20.10;99.90;;;;;;5019600;28;20045;-59
2022/08/21 08:10:41;;;;;;;9.32;2.92;;;20.20;99.90;;;;;;5018755;28;20108;-59
2022/08/21 08:13:07;;;;;;;10.63;2.80;;;20.30;99.90;;;;;;5018456;28;20091;-58
2022/08/21 08:15:32;;;;;;;11.00;2.95;;;20.40;99.90;;;;;;5018741;28;20543;-59
2022/08/21 08:17:58;;;;;;;7.75;2.97;;;20.40;99.90;;;;;;5019994;28;20045;-59
2022/08/21 08:20:26;;;;;;;10.43;2.90;;;20.60;99.90;;;;;;5018253;28;20121;-59
2022/08/21 08:22:53;;;;;;;9.73;2.70;;;20.60;99.90;;;;;;5024046;28;20042;-59
2022/08/21 08:25:20;;;;;;;13.55;3.47;;;20.70;99.90;;;;;;5022322;28;20400;-59
2022/08/21 08:27:46;;;;;;;11.30;2.83;;;20.80;99.90;;;;;;5038590;28;20053;-58
2022/08/21 08:30:14;;;;;;;9.93;2.97;;;20.90;99.90;;;;;;5022131;28;20042;-59
2022/08/21 08:32:41;;;;;;;17.30;3.33;;;21.00;99.90;;;;;;5024809;28;20048;-59
2022/08/21 08:35:08;;;;;;;12.48;3.45;;;21.10;99.90;;;;;;5023570;28;20337;-59
2022/08/21 08:37:37;;;;;;;10.48;3.33;;;21.10;99.90;;;;;;5023127;28;20041;-59
2022/08/21 08:40:05;;;;;;;11.45;3.67;;;21.20;99.90;;;;;;5023515;28;20045;-59
2022/08/21 08:42:35;;;;;;;10.93;3.28;;;21.20;99.80;;;;;;5023866;28;20468;-58
2022/08/21 08:45:16;;;;;;;12.10;3.42;;;21.40;99.90;;;;;;5024899;28;20065;-59
2022/08/21 08:47:49;;;;;;;8.30;2.58;;;21.50;99.90;;;;;;5023280;28;20445;-59
2022/08/21 08:50:29;;;;;;;9.95;2.92;;;21.70;99.60;;;;;;5023457;28;20037;-59
2022/08/21 08:53:03;;;;;;;16.15;3.30;;;22.00;99.90;;;;;;5022921;28;20061;-59
2022/08/21 08:55:37;;;;;;;8.98;2.75;;;22.20;99.70;;;;;;5024446;28;20621;-59
2022/08/21 08:58:03;;;;;;;10.80;3.25;;;22.30;99.20;;;;;;5022692;28;20081;-60
2022/08/21 09:00:31;;;;;;;9.50;3.28;;;22.50;98.70;;;;;;5022701;28;20052;-59
2022/08/21 09:02:59;;;;;;;10.48;2.80;;;22.50;98.20;;;;;;5023485;28;20060;-59
2022/08/21 09:05:29;;;;;;;10.52;3.25;;;22.40;98.60;;;;;;5021095;28;20048;-59
2022/08/21 09:08:12;;;;;;;8.40;2.47;;;22.40;98.50;;;;;;5021877;28;20128;-59
2022/08/21 09:10:48;;;;;;;15.70;3.70;;;22.30;98.40;;;;;;5020926;28;20103;-59
2022/08/21 09:13:52;;;;;;;12.27;2.83;;;22.30;98.60;;;;;;5021106;28;20057;-59
2022/08/21 09:16:39;;;;;;;12.40;2.65;;;22.30;98.70;;;;;;5021761;28;20128;-59
2022/08/21 09:19:26;;;;;;;11.38;2.92;;;22.50;98.70;;;;;;5022239;28;20045;-59
2022/08/21 09:22:04;;;;;;;13.38;3.08;;;22.50;98.30;;;;;;5021777;28;20393;-59
2022/08/21 09:24:52;;;;;;;11.60;3.10;;;22.70;98.10;;;;;;5022531;28;20045;-59
2022/08/21 09:27:21;;;;;;;10.23;3.03;;;22.80;98.00;;;;;;5022791;28;20135;-59
2022/08/21 09:29:50;;;;;;;8.63;2.80;;;22.90;97.70;;;;;;5022283;28;20052;-59
2022/08/21 09:32:19;;;;;;;10.00;2.80;;;23.00;97.40;;;;;;5023067;28;20081;-59
2022/08/21 09:35:17;;;;;;;15.20;3.30;;;23.10;97.30;;;;;;5021132;28;20045;-59
2022/08/21 09:37:51;;;;;;;10.13;2.60;;;23.30;97.20;;;;;;5012622;28;20045;-58
2022/08/21 09:40:31;;;;;;;8.35;2.85;;;23.50;96.80;;;;;;5037044;28;20060;-58
2022/08/21 09:43:01;;;;;;;9.25;2.72;;;23.60;96.80;;;;;;5022489;28;20119;-60
2022/08/21 09:45:27;;;;;;;9.13;2.88;;;23.90;96.80;;;;;;5021584;28;20073;-59
2022/08/21 09:47:52;;;;;;;10.02;2.50;;;24.10;96.10;;;;;;5021672;28;20132;-60
2022/08/21 09:50:26;;;;;;;13.95;2.85;;;24.20;95.70;;;;;;5022588;28;20048;-60
2022/08/21 09:52:58;;;;;;;13.20;2.88;;;24.30;95.60;;;;;;5021107;28;20088;-59
2022/08/21 09:58:11;;;;;;;11.00;2.55;;;24.30;94.40;;;;;;5021015;28;20054;-60
2022/08/21 10:00:37;;;;;;;9.48;2.10;;;24.40;94.50;;;;;;5038038;28;20033;-59
2022/08/21 10:03:19;;;;;;;9.40;3.10;;;24.40;93.70;;;;;;5022287;28;20038;-58
2022/08/21 10:05:57;;;;;;;9.00;2.60;;;24.50;93.60;;;;;;5021817;28;20076;-59
2022/08/21 10:08:26;;;;;;;10.38;2.80;;;24.60;93.50;;;;;;5021898;28;20300;-59
2022/08/21 10:11:14;;;;;;;12.23;2.65;;;24.80;93.30;;;;;;5020915;28;20054;-59
2022/08/21 10:14:33;;;;;;;10.00;2.50;;;25.10;92.70;;;;;;5021410;28;20049;-59
2022/08/21 10:17:10;;;;;;;7.53;2.30;;;25.00;92.30;;;;;;4990974;28;20654;-59
2022/08/21 10:19:43;;;;;;;11.70;2.65;;;25.10;91.60;;;;;;5020193;28;20049;-58
2022/08/21 10:22:34;;;;;;;6.82;1.95;;;25.20;91.20;;;;;;5019625;28;20042;-59
2022/08/21 10:25:17;;;;;;;10.45;2.17;;;25.40;91.30;;;;;;5020424;28;20044;-58
2022/08/21 10:27:49;;;;;;;9.85;2.63;;;25.40;90.60;;;;;;5020552;28;20045;-59
2022/08/21 10:30:37;;;;;;;8.05;2.60;;;25.20;90.50;;;;;;5021489;28;20049;-59
2022/08/21 10:33:20;;;;;;;8.52;2.25;;;25.10;90.10;;;;;;5021801;28;20071;-59
2022/08/21 10:35:58;;;;;;;6.85;2.17;;;24.90;90.20;;;;;;5019773;28;20041;-58
2022/08/21 10:38:46;;;;;;;8.27;2.28;;;24.70;90.40;;;;;;5022669;28;20111;-59
2022/08/21 10:41:33;;;;;;;6.97;2.10;;;24.50;90.20;;;;;;5021727;28;20049;-59
2022/08/21 10:44:23;;;;;;;9.35;2.40;;;24.30;90.60;;;;;;5019430;28;20071;-59
2022/08/21 10:47:07;;;;;;;6.25;2.05;;;24.10;90.60;;;;;;5019890;28;20085;-59
2022/08/21 10:50:14;;;;;;;9.98;2.28;;;24.10;90.80;;;;;;5018545;28;20087;-59
2022/08/21 10:52:59;;;;;;;6.78;2.20;;;24.00;90.60;;;;;;4987191;28;20091;-59
2022/08/21 10:55:36;;;;;;;7.82;2.20;;;23.90;90.50;;;;;;5020633;28;20601;-59
2022/08/21 10:58:17;;;;;;;9.68;2.60;;;23.90;90.90;;;;;;5020048;28;20049;-59
2022/08/21 11:00:53;;;;;;;11.75;2.47;;;23.90;91.50;;;;;;5018928;28;20041;-58
2022/08/21 11:03:40;;;;;;;7.35;2.42;;;23.90;91.40;;;;;;5018840;28;20042;-59
2022/08/21 11:06:21;;;;;;;8.18;2.58;;;24.10;91.90;;;;;;5018630;28;20153;-59
2022/08/21 11:08:54;;;;;;;12.00;3.25;;;24.40;92.00;;;;;;5019795;28;20085;-59
2022/08/21 11:11:35;;;;;;;9.02;2.35;;;24.80;91.70;;;;;;5020587;28;20045;-59
2022/08/21 11:14:23;;;;;;;8.05;2.58;;;25.20;91.20;;;;;;5020234;28;20081;-59
2022/08/21 11:17:07;;;;;;;7.78;2.05;;;25.60;90.90;;;;;;5020948;28;20037;-59
2022/08/21 11:19:42;;;;;;;10.13;2.03;;;25.80;87.50;;;;;;5019009;28;20049;-59
2022/08/21 11:22:34;;;;;;;8.30;2.08;;;26.00;88.00;;;;;;5019089;28;20050;-59
2022/08/21 11:25:17;;;;;;;9.60;2.20;;;26.30;85.80;;;;;;5020365;28;20037;-59
2022/08/21 11:28:02;;;;;;;8.40;2.00;;;26.50;83.90;;;;;;5020396;28;20041;-59
2022/08/21 11:30:42;;;;;;;10.05;2.10;;;26.70;83.70;;;;;;5020945;28;20513;-59
2022/08/21 11:33:34;;;;;;;5.53;2.05;;;26.60;82.80;;;;;;5020145;28;20048;-59
2022/08/21 11:36:30;;;;;;;9.02;2.95;;;26.40;83.10;;;;;;5019594;28;20464;-58
2022/08/21 11:39:21;;;;;;;9.98;2.17;;;26.20;82.50;;;;;;5018896;28;20256;-59
2022/08/21 11:42:11;;;;;;;8.57;2.38;;;25.90;83.80;;;;;;4989963;28;20491;-60
2022/08/21 11:44:42;;;;;;;5.68;2.10;;;25.70;83.70;;;;;;5021985;28;20403;-59
2022/08/21 11:47:29;;;;;;;4.80;1.67;;;25.50;82.80;;;;;;5035232;28;20071;-59
2022/08/21 11:50:15;;;;;;;11.45;2.80;;;25.30;82.50;;;;;;5019535;28;20084;-59
2022/08/21 11:52:48;;;;;;;7.88;2.33;;;25.10;82.50;;;;;;5020163;28;20210;-59
2022/08/21 11:55:28;;;;;;;7.13;2.20;;;25.00;82.90;;;;;;5020545;28;20053;-59
2022/08/21 11:58:06;;;;;;;5.63;1.98;;;25.00;83.30;;;;;;5007162;28;20045;-59
2022/08/21 12:01:05;;;;;;;9.05;1.92;;;25.30;84.00;;;;;;5025083;28;20046;-59
2022/08/21 12:03:37;;;;;;;6.90;2.20;;;25.90;82.70;;;;;;5022298;28;20045;-59
2022/08/21 12:06:12;;;;;;;9.23;1.98;;;26.10;80.70;;;;;;5024056;28;20053;-58
2022/08/21 12:08:43;;;;;;;7.72;1.90;;;26.30;79.70;;;;;;5038836;28;20052;-59
2022/08/21 12:11:18;;;;;;;4.70;1.85;;;26.20;77.60;;;;;;5022957;28;20037;-59
2022/08/21 12:14:13;;;;;;;8.70;1.85;;;26.10;77.30;;;;;;5024220;28;20518;-60
2022/08/21 12:16:46;;;;;;;6.50;2.05;;;25.90;77.20;;;;;;5022704;28;20526;-59
2022/08/21 12:19:24;;;;;;;11.98;2.08;;;25.90;76.80;;;;;;5023768;28;20041;-59
2022/08/21 12:22:09;;;;;;;12.55;2.38;;;26.10;77.50;;;;;;5023762;28;20049;-59
2022/08/21 12:24:42;;;;;;;6.15;1.80;;;26.40;76.50;;;;;;5024081;28;20618;-59
2022/08/21 12:27:19;;;;;;;8.43;1.95;;;26.50;76.20;;;;;;5025873;28;20111;-59
2022/08/21 12:29:51;;;;;;;8.85;2.03;;;26.90;76.50;;;;;;5023765;28;20049;-59
2022/08/21 12:32:17;;;;;;;6.85;2.20;;;27.20;74.60;;;;;;5024192;28;20049;-59
2022/08/21 12:34:54;;;;;;;4.93;1.75;;;27.20;74.10;;;;;;5022628;28;20048;-59
2022/08/21 12:37:39;;;;;;;5.15;1.80;;;27.10;73.40;;;;;;5023732;28;20181;-60
2022/08/21 12:40:30;;;;;;;5.22;1.77;;;26.90;72.50;;;;;;5023603;28;20099;-59
2022/08/21 12:43:00;;;;;;;6.15;2.10;;;26.70;72.10;;;;;;5022635;28;20064;-59
2022/08/21 12:45:39;;;;;;;7.70;1.90;;;26.60;72.40;;;;;;5022264;28;20084;-60
2022/08/21 12:48:18;;;;;;;5.18;1.63;;;26.50;71.80;;;;;;5039082;28;20045;-59
2022/08/21 12:50:56;;;;;;;7.03;1.48;;;26.50;71.50;;;;;;5023621;28;20621;-59
2022/08/21 12:53:22;;;;;;;5.43;1.48;;;26.40;71.40;;;;;;5022464;28;20087;-59
2022/08/21 12:55:48;;;;;;;4.43;1.48;;;26.30;71.00;;;;;;5021257;28;21176;-59
2022/08/21 12:58:23;;;;;;;4.97;1.65;;;26.10;70.10;;;;;;5021791;28;20060;-59
2022/08/21 13:01:04;;;;;;;4.75;1.55;;;25.90;69.70;;;;;;5036638;28;20038;-59
2022/08/21 13:03:34;;;;;;;4.68;1.40;;;25.70;70.60;;;;;;5021876;28;20037;-59